sensor_id;sensor_type;location;lat;lon;timestamp;pressure;altitude;pressure_sealevel;temperature;humidity
72262;BME280;60173;52.112;8.648;2023-04-27T00:00:29;101007.97;;;3.46;88.55
72262;BME280;60173;52.112;8.648;2023-04-27T00:02:56;101008.41;;;3.55;88.55
72262;BME280;60173;52.112;8.648;2023-04-27T00:05:22;101004.78;;;3.61;88.79
72262;BME280;60173;52.112;8.648;2023-04-27T00:07:49;100997.63;;;3.67;88.72
72262;BME280;60173;52.112;8.648;2023-04-27T00:10:15;101003.59;;;3.69;89.29
72262;BME280;60173;52.112;8.648;2023-04-27T00:12:42;101006.75;;;3.66;89.41
72262;BME280;60173;52.112;8.648;2023-04-27T00:15:08;101009.44;;;3.66;90.01
72262;BME280;60173;52.112;8.648;2023-04-27T00:17:35;101001.50;;;3.71;89.99
72262;BME280;60173;52.112;8.648;2023-04-27T00:20:01;101005.31;;;3.75;89.54
72262;BME280;60173;52.112;8.648;2023-04-27T00:22:28;101014.09;;;3.70;89.11
72262;BME280;60173;52.112;8.648;2023-04-27T00:24:54;101002.31;;;3.71;89.56
72262;BME280;60173;52.112;8.648;2023-04-27T00:27:20;101011.03;;;3.78;89.46
72262;BME280;60173;52.112;8.648;2023-04-27T00:29:47;101009.16;;;3.79;88.77
72262;BME280;60173;52.112;8.648;2023-04-27T00:32:13;101001.78;;;3.86;88.29
72262;BME280;60173;52.112;8.648;2023-04-27T00:34:39;101003.41;;;3.87;87.85
72262;BME280;60173;52.112;8.648;2023-04-27T00:37:05;101005.31;;;3.75;87.58
72262;BME280;60173;52.112;8.648;2023-04-27T00:39:33;101003.63;;;3.57;87.53
72262;BME280;60173;52.112;8.648;2023-04-27T00:41:59;101003.31;;;3.82;86.58
72262;BME280;60173;52.112;8.648;2023-04-27T00:44:26;100998.22;;;3.97;83.70
72262;BME280;60173;52.112;8.648;2023-04-27T00:46:53;100999.47;;;3.78;83.52
72262;BME280;60173;52.112;8.648;2023-04-27T00:49:20;101001.13;;;3.96;82.53
72262;BME280;60173;52.112;8.648;2023-04-27T00:51:47;100994.84;;;3.90;81.74
72262;BME280;60173;52.112;8.648;2023-04-27T00:54:19;100999.94;;;3.75;82.02
72262;BME280;60173;52.112;8.648;2023-04-27T00:56:49;101005.22;;;3.70;81.68
72262;BME280;60173;52.112;8.648;2023-04-27T00:59:17;101005.44;;;3.39;82.82
72262;BME280;60173;52.112;8.648;2023-04-27T01:01:44;101006.94;;;3.24;84.56
72262;BME280;60173;52.112;8.648;2023-04-27T01:04:11;101010.94;;;3.09;85.13
72262;BME280;60173;52.112;8.648;2023-04-27T01:06:37;101017.59;;;2.95;86.23
72262;BME280;60173;52.112;8.648;2023-04-27T01:09:05;101019.94;;;2.91;86.59
72262;BME280;60173;52.112;8.648;2023-04-27T01:11:32;101023.91;;;2.89;86.25
72262;BME280;60173;52.112;8.648;2023-04-27T01:14:02;101024.25;;;2.81;86.35
72262;BME280;60173;52.112;8.648;2023-04-27T01:16:29;101033.69;;;2.71;86.47
72262;BME280;60173;52.112;8.648;2023-04-27T01:18:56;101031.78;;;2.60;86.76
72262;BME280;60173;52.112;8.648;2023-04-27T01:21:23;101031.22;;;2.58;87.22
72262;BME280;60173;52.112;8.648;2023-04-27T01:23:49;101041.81;;;2.53;87.44
72262;BME280;60173;52.112;8.648;2023-04-27T01:26:15;101043.56;;;2.47;87.57
72262;BME280;60173;52.112;8.648;2023-04-27T01:28:42;101036.66;;;2.40;87.70
72262;BME280;60173;52.112;8.648;2023-04-27T01:31:12;101042.56;;;2.30;87.99
72262;BME280;60173;52.112;8.648;2023-04-27T01:33:39;101043.84;;;2.28;88.15
72262;BME280;60173;52.112;8.648;2023-04-27T01:36:06;101041.13;;;2.16;88.17
72262;BME280;60173;52.112;8.648;2023-04-27T01:38:33;101060.13;;;2.14;89.14
72262;BME280;60173;52.112;8.648;2023-04-27T01:41:00;101060.19;;;2.08;89.43
72262;BME280;60173;52.112;8.648;2023-04-27T01:43:27;101052.88;;;2.03;89.74
72262;BME280;60173;52.112;8.648;2023-04-27T01:45:53;101054.13;;;2.00;89.27
72262;BME280;60173;52.112;8.648;2023-04-27T01:48:20;101063.59;;;2.03;89.83
72262;BME280;60173;52.112;8.648;2023-04-27T01:50:46;101059.13;;;1.97;89.66
72262;BME280;60173;52.112;8.648;2023-04-27T01:53:12;101062.84;;;1.96;89.69
72262;BME280;60173;52.112;8.648;2023-04-27T01:55:39;101070.06;;;1.95;89.70
72262;BME280;60173;52.112;8.648;2023-04-27T01:58:05;101071.13;;;1.94;89.97
72262;BME280;60173;52.112;8.648;2023-04-27T02:00:31;101072.94;;;1.94;89.65
72262;BME280;60173;52.112;8.648;2023-04-27T02:02:58;101075.97;;;1.86;89.67
72262;BME280;60173;52.112;8.648;2023-04-27T02:05:24;101078.63;;;1.86;89.92
72262;BME280;60173;52.112;8.648;2023-04-27T02:07:51;101082.34;;;1.85;89.88
72262;BME280;60173;52.112;8.648;2023-04-27T02:10:17;101086.53;;;1.80;89.97
72262;BME280;60173;52.112;8.648;2023-04-27T02:12:43;101085.72;;;1.80;89.84
72262;BME280;60173;52.112;8.648;2023-04-27T02:15:10;101085.78;;;1.73;89.81
72262;BME280;60173;52.112;8.648;2023-04-27T02:17:36;101082.72;;;1.70;89.87
72262;BME280;60173;52.112;8.648;2023-04-27T02:20:03;101087.56;;;1.61;89.96
72262;BME280;60173;52.112;8.648;2023-04-27T02:22:29;101094.78;;;1.61;90.21
72262;BME280;60173;52.112;8.648;2023-04-27T02:24:56;101086.84;;;1.54;89.94
72262;BME280;60173;52.112;8.648;2023-04-27T02:27:22;101087.94;;;1.46;89.99
72262;BME280;60173;52.112;8.648;2023-04-27T02:29:49;101086.16;;;1.40;90.52
72262;BME280;60173;52.112;8.648;2023-04-27T02:32:16;101079.16;;;1.39;90.89
72262;BME280;60173;52.112;8.648;2023-04-27T02:34:42;101082.06;;;1.38;91.07
72262;BME280;60173;52.112;8.648;2023-04-27T02:37:09;101088.00;;;1.40;91.05
72262;BME280;60173;52.112;8.648;2023-04-27T02:39:35;101090.69;;;1.40;90.96
72262;BME280;60173;52.112;8.648;2023-04-27T02:42:02;101091.13;;;1.37;91.08
72262;BME280;60173;52.112;8.648;2023-04-27T02:44:28;101084.00;;;1.30;91.19
72262;BME280;60173;52.112;8.648;2023-04-27T02:46:55;101081.00;;;1.39;91.29
72262;BME280;60173;52.112;8.648;2023-04-27T02:49:21;101086.44;;;1.32;91.13
72262;BME280;60173;52.112;8.648;2023-04-27T02:51:47;101083.91;;;1.19;91.23
72262;BME280;60173;52.112;8.648;2023-04-27T02:54:14;101082.31;;;1.11;91.52
72262;BME280;60173;52.112;8.648;2023-04-27T02:56:40;101083.63;;;1.02;92.08
72262;BME280;60173;52.112;8.648;2023-04-27T02:59:06;101089.28;;;1.12;92.08
72262;BME280;60173;52.112;8.648;2023-04-27T03:01:33;101075.47;;;1.15;91.73
72262;BME280;60173;52.112;8.648;2023-04-27T03:03:59;101082.84;;;1.20;91.31
72262;BME280;60173;52.112;8.648;2023-04-27T03:06:26;101080.16;;;1.20;91.08
72262;BME280;60173;52.112;8.648;2023-04-27T03:08:52;101075.72;;;1.13;90.75
72262;BME280;60173;52.112;8.648;2023-04-27T03:11:18;101081.84;;;0.96;91.21
72262;BME280;60173;52.112;8.648;2023-04-27T03:13:45;101082.31;;;0.86;91.85
72262;BME280;60173;52.112;8.648;2023-04-27T03:16:11;101083.25;;;0.73;92.45
72262;BME280;60173;52.112;8.648;2023-04-27T03:18:37;101084.00;;;0.80;92.95
72262;BME280;60173;52.112;8.648;2023-04-27T03:21:08;101083.13;;;0.86;92.80
72262;BME280;60173;52.112;8.648;2023-04-27T03:23:35;101079.09;;;0.77;92.69
72262;BME280;60173;52.112;8.648;2023-04-27T03:26:09;101076.53;;;0.64;92.74
72262;BME280;60173;52.112;8.648;2023-04-27T03:28:36;101077.78;;;0.61;92.94
72262;BME280;60173;52.112;8.648;2023-04-27T03:31:06;101080.66;;;0.60;93.32
72262;BME280;60173;52.112;8.648;2023-04-27T03:33:33;101073.50;;;0.54;93.61
72262;BME280;60173;52.112;8.648;2023-04-27T03:36:00;101080.91;;;0.52;94.02
72262;BME280;60173;52.112;8.648;2023-04-27T03:38:26;101082.81;;;0.44;94.12
72262;BME280;60173;52.112;8.648;2023-04-27T03:40:53;101080.22;;;0.38;94.36
72262;BME280;60173;52.112;8.648;2023-04-27T03:43:20;101076.09;;;0.35;94.80
72262;BME280;60173;52.112;8.648;2023-04-27T03:45:46;101071.00;;;0.27;94.87
72262;BME280;60173;52.112;8.648;2023-04-27T03:48:13;101069.78;;;0.23;95.29
72262;BME280;60173;52.112;8.648;2023-04-27T03:50:40;101074.97;;;0.18;95.25
72262;BME280;60173;52.112;8.648;2023-04-27T03:53:06;101074.38;;;0.16;95.26
72262;BME280;60173;52.112;8.648;2023-04-27T03:55:33;101077.03;;;0.16;95.36
72262;BME280;60173;52.112;8.648;2023-04-27T03:57:59;101084.44;;;0.14;95.25
72262;BME280;60173;52.112;8.648;2023-04-27T04:00:26;101085.25;;;0.14;95.26
72262;BME280;60173;52.112;8.648;2023-04-27T04:02:52;101082.56;;;0.14;95.44
72262;BME280;60173;52.112;8.648;2023-04-27T04:05:19;101086.09;;;0.15;95.65
72262;BME280;60173;52.112;8.648;2023-04-27T04:07:45;101091.44;;;0.15;95.13
72262;BME280;60173;52.112;8.648;2023-04-27T04:10:11;101089.16;;;0.18;94.74
72262;BME280;60173;52.112;8.648;2023-04-27T04:12:38;101086.53;;;0.12;94.91
72262;BME280;60173;52.112;8.648;2023-04-27T04:15:04;101092.44;;;0.14;95.38
72262;BME280;60173;52.112;8.648;2023-04-27T04:17:31;101087.09;;;0.14;95.55
72262;BME280;60173;52.112;8.648;2023-04-27T04:19:57;101090.81;;;0.13;95.84
72262;BME280;60173;52.112;8.648;2023-04-27T04:22:24;101095.56;;;0.11;96.24
72262;BME280;60173;52.112;8.648;2023-04-27T04:24:50;101107.47;;;0.08;96.34
72262;BME280;60173;52.112;8.648;2023-04-27T04:27:16;101104.84;;;0.02;96.18
72262;BME280;60173;52.112;8.648;2023-04-27T04:29:43;101099.50;;;0.02;96.46
72262;BME280;60173;52.112;8.648;2023-04-27T04:32:09;101105.69;;;-0.05;96.52
72262;BME280;60173;52.112;8.648;2023-04-27T04:34:36;101106.13;;;-0.08;96.79
72262;BME280;60173;52.112;8.648;2023-04-27T04:37:03;101106.53;;;-0.11;96.91
72262;BME280;60173;52.112;8.648;2023-04-27T04:39:30;101110.72;;;0.17;97.60
72262;BME280;60173;52.112;8.648;2023-04-27T04:41:56;101111.28;;;0.64;97.66
72262;BME280;60173;52.112;8.648;2023-04-27T04:44:23;101114.72;;;1.21;96.21
72262;BME280;60173;52.112;8.648;2023-04-27T04:46:49;101111.53;;;1.74;93.40
72262;BME280;60173;52.112;8.648;2023-04-27T04:49:16;101101.91;;;2.34;90.01
72262;BME280;60173;52.112;8.648;2023-04-27T04:51:43;101110.31;;;2.67;85.61
72262;BME280;60173;52.112;8.648;2023-04-27T04:54:10;101109.97;;;2.76;83.78
72262;BME280;60173;52.112;8.648;2023-04-27T04:56:36;101106.06;;;2.60;82.91
72262;BME280;60173;52.112;8.648;2023-04-27T04:59:03;101125.00;;;2.35;83.92
72262;BME280;60173;52.112;8.648;2023-04-27T05:01:29;101119.22;;;2.19;85.07
72262;BME280;60173;52.112;8.648;2023-04-27T05:03:55;101121.16;;;2.12;85.70
72262;BME280;60173;52.112;8.648;2023-04-27T05:06:22;101115.06;;;2.05;85.97
72262;BME280;60173;52.112;8.648;2023-04-27T05:08:48;101114.84;;;2.07;86.17
72262;BME280;60173;52.112;8.648;2023-04-27T05:11:14;101111.06;;;1.96;86.56
72262;BME280;60173;52.112;8.648;2023-04-27T05:13:42;101122.66;;;1.90;87.22
72262;BME280;60173;52.112;8.648;2023-04-27T05:16:08;101129.28;;;1.87;87.82
72262;BME280;60173;52.112;8.648;2023-04-27T05:18:35;101121.78;;;1.96;88.15
72262;BME280;60173;52.112;8.648;2023-04-27T05:21:01;101123.94;;;2.06;88.17
72262;BME280;60173;52.112;8.648;2023-04-27T05:23:27;101128.34;;;2.00;88.43
72262;BME280;60173;52.112;8.648;2023-04-27T05:25:54;101133.88;;;2.17;88.33
72262;BME280;60173;52.112;8.648;2023-04-27T05:28:20;101144.84;;;2.15;88.49
72262;BME280;60173;52.112;8.648;2023-04-27T05:30:46;101144.88;;;2.27;88.44
72262;BME280;60173;52.112;8.648;2023-04-27T05:33:13;101139.03;;;2.48;87.95
72262;BME280;60173;52.112;8.648;2023-04-27T05:35:39;101142.59;;;2.61;87.32
72262;BME280;60173;52.112;8.648;2023-04-27T05:38:05;101144.72;;;2.70;87.16
72262;BME280;60173;52.112;8.648;2023-04-27T05:40:32;101141.94;;;2.89;87.07
72262;BME280;60173;52.112;8.648;2023-04-27T05:42:58;101148.19;;;3.72;86.44
72262;BME280;60173;52.112;8.648;2023-04-27T05:45:24;101140.97;;;4.70;83.53
72262;BME280;60173;52.112;8.648;2023-04-27T05:47:51;101133.59;;;6.27;79.08
72262;BME280;60173;52.112;8.648;2023-04-27T05:50:17;101136.78;;;7.90;70.86
72262;BME280;60173;52.112;8.648;2023-04-27T05:52:43;101138.97;;;8.87;64.75
72262;BME280;60173;52.112;8.648;2023-04-27T05:55:10;101140.63;;;9.09;62.82
72262;BME280;60173;52.112;8.648;2023-04-27T05:57:37;101144.53;;;9.88;60.80
72262;BME280;60173;52.112;8.648;2023-04-27T06:00:04;101141.75;;;10.68;56.66
72262;BME280;60173;52.112;8.648;2023-04-27T06:02:31;101146.34;;;11.07;55.80
72262;BME280;60173;52.112;8.648;2023-04-27T06:04:58;101141.06;;;11.50;53.52
72262;BME280;60173;52.112;8.648;2023-04-27T06:07:24;101148.63;;;12.06;53.24
72262;BME280;60173;52.112;8.648;2023-04-27T06:09:50;101145.97;;;12.63;51.29
72262;BME280;60173;52.112;8.648;2023-04-27T06:12:17;101147.78;;;13.05;49.22
72262;BME280;60173;52.112;8.648;2023-04-27T06:14:43;101152.13;;;13.39;48.53
72262;BME280;60173;52.112;8.648;2023-04-27T06:17:09;101148.72;;;13.47;47.28
72262;BME280;60173;52.112;8.648;2023-04-27T06:19:36;101148.97;;;13.92;44.57
72262;BME280;60173;52.112;8.648;2023-04-27T06:22:02;101149.34;;;14.13;44.84
72262;BME280;60173;52.112;8.648;2023-04-27T06:24:28;101149.13;;;14.37;44.53
72262;BME280;60173;52.112;8.648;2023-04-27T06:26:55;101166.44;;;13.91;46.08
72262;BME280;60173;52.112;8.648;2023-04-27T06:29:21;101153.09;;;13.76;46.51
72262;BME280;60173;52.112;8.648;2023-04-27T06:31:47;101152.25;;;13.48;47.33
72262;BME280;60173;52.112;8.648;2023-04-27T06:34:14;101146.47;;;12.84;47.36
72262;BME280;60173;52.112;8.648;2023-04-27T06:36:40;101149.78;;;12.00;47.90
72262;BME280;60173;52.112;8.648;2023-04-27T06:39:06;101138.84;;;10.94;50.39
72262;BME280;60173;52.112;8.648;2023-04-27T06:41:33;101138.78;;;10.05;52.25
72262;BME280;60173;52.112;8.648;2023-04-27T06:43:59;101145.75;;;9.36;55.15
72262;BME280;60173;52.112;8.648;2023-04-27T06:46:25;101146.25;;;8.66;57.82
72262;BME280;60173;52.112;8.648;2023-04-27T06:48:52;101153.81;;;8.54;57.69
72262;BME280;60173;52.112;8.648;2023-04-27T06:51:18;101147.00;;;8.41;58.21
72262;BME280;60173;52.112;8.648;2023-04-27T06:53:44;101147.59;;;8.58;58.01
72262;BME280;60173;52.112;8.648;2023-04-27T06:56:11;101155.69;;;8.48;58.22
72262;BME280;60173;52.112;8.648;2023-04-27T06:58:37;101145.34;;;8.35;59.65
72262;BME280;60173;52.112;8.648;2023-04-27T07:01:04;101151.13;;;8.54;60.21
72262;BME280;60173;52.112;8.648;2023-04-27T07:03:33;101159.00;;;8.76;59.57
72262;BME280;60173;52.112;8.648;2023-04-27T07:06:00;101157.94;;;8.87;58.90
72262;BME280;60173;52.112;8.648;2023-04-27T07:08:26;101162.25;;;8.93;58.49
72262;BME280;60173;52.112;8.648;2023-04-27T07:10:53;101157.94;;;9.13;58.21
72262;BME280;60173;52.112;8.648;2023-04-27T07:13:19;101154.16;;;9.09;58.77
72262;BME280;60173;52.112;8.648;2023-04-27T07:15:46;101150.34;;;8.01;57.27
72262;BME280;60173;52.112;8.648;2023-04-27T07:18:12;101156.47;;;7.01;59.35
72262;BME280;60173;52.112;8.648;2023-04-27T07:20:39;101153.72;;;6.96;59.83
72262;BME280;60173;52.112;8.648;2023-04-27T07:23:06;101157.75;;;6.66;60.63
72262;BME280;60173;52.112;8.648;2023-04-27T07:25:32;101154.88;;;7.05;60.17
72262;BME280;60173;52.112;8.648;2023-04-27T07:27:59;101150.19;;;6.95;60.39
72262;BME280;60173;52.112;8.648;2023-04-27T07:30:25;101148.44;;;7.48;59.00
72262;BME280;60173;52.112;8.648;2023-04-27T07:32:51;101149.59;;;6.61;59.18
72262;BME280;60173;52.112;8.648;2023-04-27T07:35:18;101146.00;;;7.47;57.90
72262;BME280;60173;52.112;8.648;2023-04-27T07:37:44;101148.91;;;7.35;57.82
72262;BME280;60173;52.112;8.648;2023-04-27T07:40:11;101145.53;;;7.60;57.52
72262;BME280;60173;52.112;8.648;2023-04-27T07:42:37;101144.09;;;7.90;56.28
72262;BME280;60173;52.112;8.648;2023-04-27T07:45:04;101154.81;;;7.69;55.00
72262;BME280;60173;52.112;8.648;2023-04-27T07:47:31;101140.75;;;7.78;54.36
72262;BME280;60173;52.112;8.648;2023-04-27T07:49:57;101142.88;;;7.28;55.51
72262;BME280;60173;52.112;8.648;2023-04-27T07:52:23;101144.16;;;7.15;55.55
72262;BME280;60173;52.112;8.648;2023-04-27T07:54:50;101144.38;;;7.93;53.43
72262;BME280;60173;52.112;8.648;2023-04-27T07:57:16;101141.44;;;8.05;52.67
72262;BME280;60173;52.112;8.648;2023-04-27T07:59:42;101139.84;;;8.09;55.65
72262;BME280;60173;52.112;8.648;2023-04-27T08:02:09;101141.97;;;7.55;57.94
72262;BME280;60173;52.112;8.648;2023-04-27T08:04:45;101136.81;;;7.11;57.92
72262;BME280;60173;52.112;8.648;2023-04-27T08:07:13;101140.34;;;8.01;55.05
72262;BME280;60173;52.112;8.648;2023-04-27T08:09:40;101130.56;;;7.95;54.55
72262;BME280;60173;52.112;8.648;2023-04-27T08:12:06;101143.84;;;7.49;58.11
72262;BME280;60173;52.112;8.648;2023-04-27T08:14:33;101138.63;;;7.80;55.20
72262;BME280;60173;52.112;8.648;2023-04-27T08:17:00;101133.91;;;8.07;55.13
72262;BME280;60173;52.112;8.648;2023-04-27T08:19:26;101138.06;;;7.73;54.27
72262;BME280;60173;52.112;8.648;2023-04-27T08:21:53;101137.66;;;8.06;53.27
72262;BME280;60173;52.112;8.648;2023-04-27T08:24:19;101138.69;;;8.83;52.52
72262;BME280;60173;52.112;8.648;2023-04-27T08:26:45;101132.97;;;8.54;47.30
72262;BME280;60173;52.112;8.648;2023-04-27T08:29:12;101135.69;;;8.59;49.22
72262;BME280;60173;52.112;8.648;2023-04-27T08:31:52;101142.22;;;8.84;49.10
72262;BME280;60173;52.112;8.648;2023-04-27T08:34:21;101141.91;;;7.92;50.51
72262;BME280;60173;52.112;8.648;2023-04-27T08:36:48;101148.03;;;8.30;49.35
72262;BME280;60173;52.112;8.648;2023-04-27T08:39:14;101138.16;;;8.81;48.72
72262;BME280;60173;52.112;8.648;2023-04-27T08:41:41;101145.44;;;8.76;47.73
72262;BME280;60173;52.112;8.648;2023-04-27T08:44:08;101134.91;;;8.95;49.01
72262;BME280;60173;52.112;8.648;2023-04-27T08:46:35;101136.81;;;8.84;48.22
72262;BME280;60173;52.112;8.648;2023-04-27T08:49:02;101134.91;;;9.15;48.15
72262;BME280;60173;52.112;8.648;2023-04-27T08:51:31;101131.66;;;9.08;47.38
72262;BME280;60173;52.112;8.648;2023-04-27T08:53:57;101133.31;;;9.14;47.30
72262;BME280;60173;52.112;8.648;2023-04-27T08:56:26;101133.00;;;9.16;48.08
72262;BME280;60173;52.112;8.648;2023-04-27T08:58:54;101132.50;;;9.09;49.15
72262;BME280;60173;52.112;8.648;2023-04-27T09:01:22;101128.13;;;8.82;51.12
72262;BME280;60173;52.112;8.648;2023-04-27T09:03:54;101130.81;;;9.33;50.45
72262;BME280;60173;52.112;8.648;2023-04-27T09:06:34;101127.00;;;9.55;50.48
72262;BME280;60173;52.112;8.648;2023-04-27T09:09:01;101121.41;;;10.01;50.02
72262;BME280;60173;52.112;8.648;2023-04-27T09:11:30;101118.66;;;10.16;45.84
72262;BME280;60173;52.112;8.648;2023-04-27T09:13:58;101126.69;;;9.71;46.68
72262;BME280;60173;52.112;8.648;2023-04-27T09:16:27;101132.50;;;9.09;49.65
72262;BME280;60173;52.112;8.648;2023-04-27T09:18:55;101133.84;;;9.06;49.77
72262;BME280;60173;52.112;8.648;2023-04-27T09:21:28;101132.47;;;9.19;49.87
72262;BME280;60173;52.112;8.648;2023-04-27T09:23:55;101127.59;;;9.11;50.47
72262;BME280;60173;52.112;8.648;2023-04-27T09:26:24;101126.47;;;8.45;50.86
72262;BME280;60173;52.112;8.648;2023-04-27T09:28:52;101127.81;;;8.58;50.89
72262;BME280;60173;52.112;8.648;2023-04-27T09:31:19;101128.06;;;8.41;51.95
72262;BME280;60173;52.112;8.648;2023-04-27T09:33:53;101130.00;;;8.61;51.76
72262;BME280;60173;52.112;8.648;2023-04-27T09:36:21;101130.28;;;8.70;52.28
72262;BME280;60173;52.112;8.648;2023-04-27T09:38:48;101127.03;;;8.68;52.55
72262;BME280;60173;52.112;8.648;2023-04-27T09:41:15;101121.91;;;8.92;51.96
72262;BME280;60173;52.112;8.648;2023-04-27T09:43:42;101125.97;;;8.94;51.22
72262;BME280;60173;52.112;8.648;2023-04-27T09:46:09;101121.91;;;9.17;48.83
72262;BME280;60173;52.112;8.648;2023-04-27T09:48:38;101126.75;;;9.25;48.15
72262;BME280;60173;52.112;8.648;2023-04-27T09:51:04;101115.06;;;9.45;47.84
72262;BME280;60173;52.112;8.648;2023-04-27T09:53:51;101120.44;;;9.81;49.24
72262;BME280;60173;52.112;8.648;2023-04-27T09:56:41;101116.88;;;10.46;45.97
72262;BME280;60173;52.112;8.648;2023-04-27T10:02:16;101109.28;;;10.48;43.61
72262;BME280;60173;52.112;8.648;2023-04-27T10:05:13;101116.19;;;11.03;44.20
72262;BME280;60173;52.112;8.648;2023-04-27T10:07:45;101104.50;;;11.61;43.69
72262;BME280;60173;52.112;8.648;2023-04-27T10:10:15;101100.59;;;12.34;41.96
72262;BME280;60173;52.112;8.648;2023-04-27T10:12:42;101105.38;;;12.80;40.07
72262;BME280;60173;52.112;8.648;2023-04-27T10:15:15;101096.53;;;12.70;40.03
72262;BME280;60173;52.112;8.648;2023-04-27T10:17:49;101100.63;;;12.53;40.90
72262;BME280;60173;52.112;8.648;2023-04-27T10:20:16;101095.94;;;12.73;41.47
72262;BME280;60173;52.112;8.648;2023-04-27T10:22:47;101103.53;;;12.19;40.76
72262;BME280;60173;52.112;8.648;2023-04-27T10:27:40;101094.63;;;12.51;40.81
72262;BME280;60173;52.112;8.648;2023-04-27T10:30:11;101091.09;;;12.70;40.12
72262;BME280;60173;52.112;8.648;2023-04-27T10:35:18;101088.91;;;12.34;41.44
72262;BME280;60173;52.112;8.648;2023-04-27T10:37:44;101092.19;;;12.69;40.59
72262;BME280;60173;52.112;8.648;2023-04-27T10:40:12;101078.84;;;12.86;41.38
72262;BME280;60173;52.112;8.648;2023-04-27T10:42:39;101081.03;;;12.84;40.15
72262;BME280;60173;52.112;8.648;2023-04-27T10:45:06;101081.19;;;13.25;40.69
72262;BME280;60173;52.112;8.648;2023-04-27T10:47:38;101073.53;;;13.55;40.54
72262;BME280;60173;52.112;8.648;2023-04-27T10:50:06;101080.59;;;13.28;41.06
72262;BME280;60173;52.112;8.648;2023-04-27T10:52:32;101082.81;;;13.40;40.49
72262;BME280;60173;52.112;8.648;2023-04-27T10:55:19;101082.63;;;13.50;39.16
72262;BME280;60173;52.112;8.648;2023-04-27T10:57:50;101073.34;;;13.51;37.66
72262;BME280;60173;52.112;8.648;2023-04-27T11:02:53;101073.72;;;13.45;38.64
72262;BME280;60173;52.112;8.648;2023-04-27T11:05:22;101077.09;;;12.76;36.33
72262;BME280;60173;52.112;8.648;2023-04-27T11:07:50;101072.00;;;10.88;42.93
72262;BME280;60173;52.112;8.648;2023-04-27T11:10:17;101069.22;;;11.51;40.21
72262;BME280;60173;52.112;8.648;2023-04-27T11:12:44;101066.69;;;11.84;39.96
72262;BME280;60173;52.112;8.648;2023-04-27T11:15:11;101066.06;;;11.44;40.20
72262;BME280;60173;52.112;8.648;2023-04-27T11:17:39;101052.53;;;12.43;39.25
72262;BME280;60173;52.112;8.648;2023-04-27T11:20:06;101055.09;;;10.96;40.03
72262;BME280;60173;52.112;8.648;2023-04-27T11:22:33;101050.56;;;11.15;40.49
72262;BME280;60173;52.112;8.648;2023-04-27T11:24:59;101060.41;;;11.11;42.14
72262;BME280;60173;52.112;8.648;2023-04-27T11:27:38;101053.00;;;10.09;42.76
72262;BME280;60173;52.112;8.648;2023-04-27T11:30:05;101043.38;;;11.00;42.89
72262;BME280;60173;52.112;8.648;2023-04-27T11:32:32;101034.63;;;11.08;41.54
72262;BME280;60173;52.112;8.648;2023-04-27T11:34:58;101041.91;;;10.05;42.55
72262;BME280;60173;52.112;8.648;2023-04-27T11:37:26;101039.28;;;10.34;41.11
72262;BME280;60173;52.112;8.648;2023-04-27T11:39:53;101040.56;;;9.98;43.40
72262;BME280;60173;52.112;8.648;2023-04-27T11:42:24;101044.47;;;9.76;43.61
72262;BME280;60173;52.112;8.648;2023-04-27T11:44:52;101040.66;;;9.77;42.06
72262;BME280;60173;52.112;8.648;2023-04-27T11:47:18;101045.88;;;10.18;42.48
72262;BME280;60173;52.112;8.648;2023-04-27T11:49:49;101038.00;;;10.95;41.83
72262;BME280;60173;52.112;8.648;2023-04-27T11:52:15;101025.56;;;10.55;39.93
72262;BME280;60173;52.112;8.648;2023-04-27T11:55:01;101022.06;;;11.37;39.48
72262;BME280;60173;52.112;8.648;2023-04-27T11:57:30;101024.94;;;11.69;39.75
72262;BME280;60173;52.112;8.648;2023-04-27T12:00:00;101028.81;;;11.87;39.26
72262;BME280;60173;52.112;8.648;2023-04-27T12:02:28;101014.28;;;11.01;39.22
72262;BME280;60173;52.112;8.648;2023-04-27T12:04:55;101022.53;;;11.44;40.90
72262;BME280;60173;52.112;8.648;2023-04-27T12:07:21;101031.53;;;12.06;39.91
72262;BME280;60173;52.112;8.648;2023-04-27T12:09:48;101030.41;;;11.69;39.30
72262;BME280;60173;52.112;8.648;2023-04-27T12:12:14;101033.16;;;12.26;41.31
72262;BME280;60173;52.112;8.648;2023-04-27T12:14:41;101031.41;;;12.35;42.29
72262;BME280;60173;52.112;8.648;2023-04-27T12:17:07;101030.97;;;11.66;39.50
72262;BME280;60173;52.112;8.648;2023-04-27T12:19:33;101025.00;;;11.64;41.51
72262;BME280;60173;52.112;8.648;2023-04-27T12:22:00;101037.44;;;11.22;38.96
72262;BME280;60173;52.112;8.648;2023-04-27T12:24:26;101032.50;;;9.82;40.59
72262;BME280;60173;52.112;8.648;2023-04-27T12:26:52;101029.44;;;10.44;40.19
72262;BME280;60173;52.112;8.648;2023-04-27T12:29:19;101019.19;;;10.99;42.09
72262;BME280;60173;52.112;8.648;2023-04-27T12:31:45;101026.75;;;11.31;42.40
72262;BME280;60173;52.112;8.648;2023-04-27T12:34:11;101012.47;;;11.44;38.43
72262;BME280;60173;52.112;8.648;2023-04-27T12:36:38;101015.81;;;11.36;40.79
72262;BME280;60173;52.112;8.648;2023-04-27T12:39:16;101020.66;;;11.15;40.01
72262;BME280;60173;52.112;8.648;2023-04-27T12:41:43;101012.06;;;11.08;40.34
72262;BME280;60173;52.112;8.648;2023-04-27T12:44:10;101020.97;;;11.38;39.67
72262;BME280;60173;52.112;8.648;2023-04-27T12:46:38;101017.44;;;11.61;38.38
72262;BME280;60173;52.112;8.648;2023-04-27T12:49:06;101011.41;;;11.64;40.39
72262;BME280;60173;52.112;8.648;2023-04-27T12:51:32;101010.81;;;11.67;40.37
72262;BME280;60173;52.112;8.648;2023-04-27T12:54:00;101018.13;;;11.00;39.00
72262;BME280;60173;52.112;8.648;2023-04-27T12:56:27;101015.13;;;11.25;40.74
72262;BME280;60173;52.112;8.648;2023-04-27T12:58:53;101015.41;;;10.71;39.78
72262;BME280;60173;52.112;8.648;2023-04-27T13:01:20;101014.28;;;11.01;40.05
72262;BME280;60173;52.112;8.648;2023-04-27T13:03:46;101017.09;;;11.20;39.50
72262;BME280;60173;52.112;8.648;2023-04-27T13:06:13;101017.81;;;12.16;40.05
72262;BME280;60173;52.112;8.648;2023-04-27T13:08:40;101020.66;;;12.06;38.32